sensor_id;sensor_type;location;lat;lon;timestamp;P1;durP1;ratioP1;P2;durP2;ratioP2
17488;SDS011;8861;52.644;4.734;2023-11-19T00:00:05;57.37;;;10.30;;
17488;SDS011;8861;52.644;4.734;2023-11-19T00:02:36;34.63;;;7.87;;
17488;SDS011;8861;52.644;4.734;2023-11-19T00:05:05;57.00;;;9.43;;
17488;SDS011;8861;52.644;4.734;2023-11-19T00:07:34;45.87;;;8.40;;
17488;SDS011;8861;52.644;4.734;2023-11-19T00:10:01;44.10;;;8.47;;
17488;SDS011;8861;52.644;4.734;2023-11-19T00:12:35;46.00;;;8.53;;
17488;SDS011;8861;52.644;4.734;2023-11-19T00:15:03;48.07;;;9.03;;
17488;SDS011;8861;52.644;4.734;2023-11-19T00:17:31;38.30;;;7.67;;
17488;SDS011;8861;52.644;4.734;2023-11-19T00:19:57;56.43;;;8.97;;
17488;SDS011;8861;52.644;4.734;2023-11-19T00:22:26;55.57;;;8.80;;
17488;SDS011;8861;52.644;4.734;2023-11-19T00:24:53;53.67;;;9.03;;
17488;SDS011;8861;52.644;4.734;2023-11-19T00:27:20;49.90;;;8.63;;
17488;SDS011;8861;52.644;4.734;2023-11-19T00:29:46;56.17;;;8.97;;
17488;SDS011;8861;52.644;4.734;2023-11-19T00:32:14;52.80;;;10.03;;
17488;SDS011;8861;52.644;4.734;2023-11-19T00:34:43;64.57;;;10.90;;
17488;SDS011;8861;52.644;4.734;2023-11-19T00:37:10;44.23;;;8.13;;
17488;SDS011;8861;52.644;4.734;2023-11-19T00:39:38;62.27;;;9.40;;
17488;SDS011;8861;52.644;4.734;2023-11-19T00:42:05;64.27;;;9.57;;
17488;SDS011;8861;52.644;4.734;2023-11-19T00:44:32;44.07;;;8.13;;
17488;SDS011;8861;52.644;4.734;2023-11-19T00:46:59;51.20;;;9.10;;
17488;SDS011;8861;52.644;4.734;2023-11-19T00:49:26;67.10;;;9.77;;
17488;SDS011;8861;52.644;4.734;2023-11-19T00:51:53;51.70;;;8.80;;
17488;SDS011;8861;52.644;4.734;2023-11-19T00:54:20;49.43;;;8.20;;
17488;SDS011;8861;52.644;4.734;2023-11-19T00:56:52;48.83;;;8.87;;
17488;SDS011;8861;52.644;4.734;2023-11-19T00:59:19;54.53;;;9.10;;
17488;SDS011;8861;52.644;4.734;2023-11-19T01:01:45;50.97;;;9.20;;
17488;SDS011;8861;52.644;4.734;2023-11-19T01:04:13;57.70;;;9.20;;
17488;SDS011;8861;52.644;4.734;2023-11-19T01:06:40;55.30;;;8.97;;
17488;SDS011;8861;52.644;4.734;2023-11-19T01:09:08;59.07;;;9.17;;
17488;SDS011;8861;52.644;4.734;2023-11-19T01:11:35;56.30;;;9.43;;
17488;SDS011;8861;52.644;4.734;2023-11-19T01:14:03;44.10;;;8.03;;
17488;SDS011;8861;52.644;4.734;2023-11-19T01:16:30;46.37;;;8.50;;
17488;SDS011;8861;52.644;4.734;2023-11-19T01:18:57;59.73;;;9.27;;
17488;SDS011;8861;52.644;4.734;2023-11-19T01:21:29;54.50;;;8.60;;
17488;SDS011;8861;52.644;4.734;2023-11-19T01:23:56;50.17;;;8.90;;
17488;SDS011;8861;52.644;4.734;2023-11-19T01:26:23;51.17;;;8.30;;
17488;SDS011;8861;52.644;4.734;2023-11-19T01:28:50;53.77;;;9.00;;
17488;SDS011;8861;52.644;4.734;2023-11-19T01:31:19;64.43;;;10.50;;
17488;SDS011;8861;52.644;4.734;2023-11-19T01:33:46;46.77;;;8.17;;
17488;SDS011;8861;52.644;4.734;2023-11-19T01:36:13;69.60;;;10.00;;
17488;SDS011;8861;52.644;4.734;2023-11-19T01:38:40;51.87;;;8.50;;
17488;SDS011;8861;52.644;4.734;2023-11-19T01:41:07;53.80;;;9.30;;
17488;SDS011;8861;52.644;4.734;2023-11-19T01:43:34;63.07;;;9.33;;
17488;SDS011;8861;52.644;4.734;2023-11-19T01:46:02;60.47;;;9.77;;
17488;SDS011;8861;52.644;4.734;2023-11-19T01:48:32;69.93;;;9.50;;
17488;SDS011;8861;52.644;4.734;2023-11-19T01:51:01;57.53;;;8.93;;
17488;SDS011;8861;52.644;4.734;2023-11-19T01:53:29;67.23;;;10.13;;
17488;SDS011;8861;52.644;4.734;2023-11-19T01:55:57;56.00;;;9.70;;
17488;SDS011;8861;52.644;4.734;2023-11-19T01:58:25;49.43;;;8.50;;
17488;SDS011;8861;52.644;4.734;2023-11-19T02:00:52;56.23;;;8.73;;
17488;SDS011;8861;52.644;4.734;2023-11-19T02:03:19;80.23;;;11.37;;
17488;SDS011;8861;52.644;4.734;2023-11-19T02:05:49;60.23;;;9.40;;
17488;SDS011;8861;52.644;4.734;2023-11-19T02:08:16;55.33;;;10.03;;
17488;SDS011;8861;52.644;4.734;2023-11-19T02:10:43;63.70;;;9.83;;
17488;SDS011;8861;52.644;4.734;2023-11-19T02:13:10;70.43;;;10.37;;
17488;SDS011;8861;52.644;4.734;2023-11-19T02:15:38;67.47;;;10.93;;
17488;SDS011;8861;52.644;4.734;2023-11-19T02:18:18;68.30;;;10.80;;
17488;SDS011;8861;52.644;4.734;2023-11-19T02:20:46;66.93;;;10.43;;
17488;SDS011;8861;52.644;4.734;2023-11-19T02:23:15;61.87;;;9.60;;
17488;SDS011;8861;52.644;4.734;2023-11-19T02:25:44;66.63;;;10.73;;
17488;SDS011;8861;52.644;4.734;2023-11-19T02:28:16;73.20;;;11.00;;
17488;SDS011;8861;52.644;4.734;2023-11-19T02:30:43;51.10;;;8.87;;
17488;SDS011;8861;52.644;4.734;2023-11-19T02:33:10;61.37;;;11.13;;
17488;SDS011;8861;52.644;4.734;2023-11-19T02:35:37;87.03;;;11.70;;
17488;SDS011;8861;52.644;4.734;2023-11-19T02:38:05;74.37;;;11.17;;
17488;SDS011;8861;52.644;4.734;2023-11-19T02:40:33;73.97;;;11.20;;
17488;SDS011;8861;52.644;4.734;2023-11-19T02:43:00;80.53;;;11.23;;
17488;SDS011;8861;52.644;4.734;2023-11-19T02:45:30;71.13;;;10.03;;
17488;SDS011;8861;52.644;4.734;2023-11-19T02:47:58;87.97;;;11.67;;
17488;SDS011;8861;52.644;4.734;2023-11-19T02:50:26;59.27;;;10.60;;
17488;SDS011;8861;52.644;4.734;2023-11-19T02:52:54;79.60;;;11.50;;
17488;SDS011;8861;52.644;4.734;2023-11-19T02:55:22;69.60;;;10.30;;
17488;SDS011;8861;52.644;4.734;2023-11-19T02:57:50;82.77;;;11.13;;
17488;SDS011;8861;52.644;4.734;2023-11-19T03:00:18;58.37;;;9.87;;
17488;SDS011;8861;52.644;4.734;2023-11-19T03:02:50;81.53;;;11.13;;
17488;SDS011;8861;52.644;4.734;2023-11-19T03:05:24;78.10;;;10.50;;
17488;SDS011;8861;52.644;4.734;2023-11-19T03:07:51;61.87;;;9.40;;
17488;SDS011;8861;52.644;4.734;2023-11-19T03:10:18;90.70;;;12.33;;
17488;SDS011;8861;52.644;4.734;2023-11-19T03:12:45;71.93;;;10.37;;
17488;SDS011;8861;52.644;4.734;2023-11-19T03:15:12;60.70;;;9.93;;
17488;SDS011;8861;52.644;4.734;2023-11-19T03:17:39;75.40;;;11.07;;
17488;SDS011;8861;52.644;4.734;2023-11-19T03:20:09;76.73;;;11.33;;
17488;SDS011;8861;52.644;4.734;2023-11-19T03:22:40;81.43;;;11.03;;
17488;SDS011;8861;52.644;4.734;2023-11-19T03:25:07;61.40;;;9.87;;
17488;SDS011;8861;52.644;4.734;2023-11-19T03:27:35;61.40;;;9.70;;
17488;SDS011;8861;52.644;4.734;2023-11-19T03:30:02;81.87;;;10.00;;
17488;SDS011;8861;52.644;4.734;2023-11-19T03:32:30;58.37;;;9.40;;
17488;SDS011;8861;52.644;4.734;2023-11-19T03:34:57;76.13;;;10.50;;
17488;SDS011;8861;52.644;4.734;2023-11-19T03:37:26;77.20;;;10.23;;
17488;SDS011;8861;52.644;4.734;2023-11-19T03:39:53;63.27;;;9.93;;
17488;SDS011;8861;52.644;4.734;2023-11-19T03:42:24;57.27;;;9.43;;
17488;SDS011;8861;52.644;4.734;2023-11-19T03:44:51;65.43;;;8.93;;
17488;SDS011;8861;52.644;4.734;2023-11-19T03:47:19;69.13;;;10.17;;
17488;SDS011;8861;52.644;4.734;2023-11-19T03:49:47;58.93;;;9.17;;
17488;SDS011;8861;52.644;4.734;2023-11-19T03:52:14;78.53;;;10.17;;
17488;SDS011;8861;52.644;4.734;2023-11-19T03:54:43;52.70;;;8.33;;
17488;SDS011;8861;52.644;4.734;2023-11-19T03:57:10;73.90;;;10.07;;
17488;SDS011;8861;52.644;4.734;2023-11-19T03:59:38;74.10;;;9.93;;
17488;SDS011;8861;52.644;4.734;2023-11-19T04:02:05;67.60;;;9.10;;
17488;SDS011;8861;52.644;4.734;2023-11-19T04:04:32;69.57;;;9.67;;
17488;SDS011;8861;52.644;4.734;2023-11-19T04:07:00;80.03;;;10.40;;
17488;SDS011;8861;52.644;4.734;2023-11-19T04:09:28;60.67;;;9.73;;
17488;SDS011;8861;52.644;4.734;2023-11-19T04:11:56;59.03;;;9.23;;
17488;SDS011;8861;52.644;4.734;2023-11-19T04:14:23;61.27;;;8.97;;
17488;SDS011;8861;52.644;4.734;2023-11-19T04:16:50;68.97;;;10.17;;
17488;SDS011;8861;52.644;4.734;2023-11-19T04:19:17;75.63;;;10.47;;
17488;SDS011;8861;52.644;4.734;2023-11-19T04:21:44;70.07;;;9.97;;
17488;SDS011;8861;52.644;4.734;2023-11-19T04:24:11;75.13;;;9.87;;
17488;SDS011;8861;52.644;4.734;2023-11-19T04:26:40;66.03;;;9.90;;
17488;SDS011;8861;52.644;4.734;2023-11-19T04:29:10;71.87;;;10.60;;
17488;SDS011;8861;52.644;4.734;2023-11-19T04:31:38;59.27;;;9.10;;
17488;SDS011;8861;52.644;4.734;2023-11-19T04:34:05;63.57;;;9.90;;
17488;SDS011;8861;52.644;4.734;2023-11-19T04:36:32;66.50;;;9.67;;
17488;SDS011;8861;52.644;4.734;2023-11-19T04:38:59;73.97;;;10.23;;
17488;SDS011;8861;52.644;4.734;2023-11-19T04:41:27;65.60;;;9.13;;
17488;SDS011;8861;52.644;4.734;2023-11-19T04:43:54;70.63;;;10.07;;
17488;SDS011;8861;52.644;4.734;2023-11-19T04:46:22;62.93;;;9.53;;
17488;SDS011;8861;52.644;4.734;2023-11-19T04:48:49;78.83;;;9.90;;
17488;SDS011;8861;52.644;4.734;2023-11-19T04:51:16;56.27;;;8.43;;
17488;SDS011;8861;52.644;4.734;2023-11-19T04:53:43;61.87;;;9.17;;
17488;SDS011;8861;52.644;4.734;2023-11-19T04:56:10;72.17;;;9.20;;
17488;SDS011;8861;52.644;4.734;2023-11-19T04:58:38;54.93;;;8.47;;
17488;SDS011;8861;52.644;4.734;2023-11-19T05:01:05;51.67;;;8.93;;
17488;SDS011;8861;52.644;4.734;2023-11-19T05:03:33;65.47;;;9.00;;
17488;SDS011;8861;52.644;4.734;2023-11-19T05:06:01;62.13;;;8.17;;
17488;SDS011;8861;52.644;4.734;2023-11-19T05:08:28;67.90;;;8.97;;
17488;SDS011;8861;52.644;4.734;2023-11-19T05:10:55;68.73;;;8.73;;
17488;SDS011;8861;52.644;4.734;2023-11-19T05:13:22;59.37;;;8.97;;
17488;SDS011;8861;52.644;4.734;2023-11-19T05:15:50;61.13;;;8.77;;
17488;SDS011;8861;52.644;4.734;2023-11-19T05:18:17;53.27;;;8.63;;
17488;SDS011;8861;52.644;4.734;2023-11-19T05:20:46;60.10;;;9.03;;
17488;SDS011;8861;52.644;4.734;2023-11-19T05:23:13;63.67;;;8.57;;
17488;SDS011;8861;52.644;4.734;2023-11-19T05:25:39;55.73;;;8.57;;
17488;SDS011;8861;52.644;4.734;2023-11-19T05:28:06;59.13;;;8.67;;
17488;SDS011;8861;52.644;4.734;2023-11-19T05:30:33;60.10;;;9.20;;
17488;SDS011;8861;52.644;4.734;2023-11-19T05:33:00;57.93;;;7.93;;
17488;SDS011;8861;52.644;4.734;2023-11-19T05:35:27;57.80;;;8.37;;
17488;SDS011;8861;52.644;4.734;2023-11-19T05:37:55;61.27;;;8.80;;
17488;SDS011;8861;52.644;4.734;2023-11-19T05:40:23;49.13;;;7.80;;
17488;SDS011;8861;52.644;4.734;2023-11-19T05:42:50;49.37;;;8.37;;
17488;SDS011;8861;52.644;4.734;2023-11-19T05:45:17;54.80;;;8.47;;
17488;SDS011;8861;52.644;4.734;2023-11-19T05:47:43;64.60;;;8.70;;
17488;SDS011;8861;52.644;4.734;2023-11-19T05:50:10;52.00;;;8.33;;
17488;SDS011;8861;52.644;4.734;2023-11-19T05:52:38;54.97;;;8.57;;
17488;SDS011;8861;52.644;4.734;2023-11-19T05:55:09;60.83;;;8.87;;
17488;SDS011;8861;52.644;4.734;2023-11-19T05:57:36;57.43;;;8.47;;
17488;SDS011;8861;52.644;4.734;2023-11-19T06:00:05;58.03;;;9.27;;
17488;SDS011;8861;52.644;4.734;2023-11-19T06:02:33;64.87;;;10.00;;
17488;SDS011;8861;52.644;4.734;2023-11-19T06:05:02;51.73;;;8.27;;
17488;SDS011;8861;52.644;4.734;2023-11-19T06:07:30;52.53;;;8.10;;
17488;SDS011;8861;52.644;4.734;2023-11-19T06:09:57;56.83;;;7.97;;
17488;SDS011;8861;52.644;4.734;2023-11-19T06:12:26;62.17;;;8.80;;
17488;SDS011;8861;52.644;4.734;2023-11-19T06:14:53;56.60;;;9.27;;
17488;SDS011;8861;52.644;4.734;2023-11-19T06:17:21;47.33;;;8.00;;
17488;SDS011;8861;52.644;4.734;2023-11-19T06:19:48;59.40;;;7.77;;
17488;SDS011;8861;52.644;4.734;2023-11-19T06:22:15;57.93;;;8.80;;
17488;SDS011;8861;52.644;4.734;2023-11-19T06:24:42;55.63;;;8.83;;
17488;SDS011;8861;52.644;4.734;2023-11-19T06:27:09;56.60;;;8.60;;
17488;SDS011;8861;52.644;4.734;2023-11-19T06:29:37;57.93;;;8.30;;
17488;SDS011;8861;52.644;4.734;2023-11-19T06:32:06;58.70;;;8.50;;
17488;SDS011;8861;52.644;4.734;2023-11-19T06:34:33;54.30;;;8.07;;
17488;SDS011;8861;52.644;4.734;2023-11-19T06:37:03;57.33;;;7.97;;
17488;SDS011;8861;52.644;4.734;2023-11-19T06:39:29;55.37;;;8.50;;
17488;SDS011;8861;52.644;4.734;2023-11-19T06:41:56;62.37;;;9.00;;
17488;SDS011;8861;52.644;4.734;2023-11-19T06:44:23;53.13;;;8.20;;
17488;SDS011;8861;52.644;4.734;2023-11-19T06:46:52;47.80;;;7.93;;
17488;SDS011;8861;52.644;4.734;2023-11-19T06:49:19;42.10;;;7.40;;
17488;SDS011;8861;52.644;4.734;2023-11-19T06:51:46;54.50;;;8.20;;
17488;SDS011;8861;52.644;4.734;2023-11-19T06:54:13;54.27;;;7.60;;
17488;SDS011;8861;52.644;4.734;2023-11-19T06:56:41;62.60;;;8.17;;
17488;SDS011;8861;52.644;4.734;2023-11-19T06:59:08;54.87;;;8.10;;
17488;SDS011;8861;52.644;4.734;2023-11-19T07:01:35;52.27;;;8.37;;
17488;SDS011;8861;52.644;4.734;2023-11-19T07:04:04;41.03;;;6.70;;
17488;SDS011;8861;52.644;4.734;2023-11-19T07:06:34;57.57;;;8.63;;
17488;SDS011;8861;52.644;4.734;2023-11-19T07:09:01;54.47;;;8.30;;
17488;SDS011;8861;52.644;4.734;2023-11-19T07:11:34;55.97;;;8.70;;
17488;SDS011;8861;52.644;4.734;2023-11-19T07:14:01;55.80;;;8.97;;
17488;SDS011;8861;52.644;4.734;2023-11-19T07:16:29;59.93;;;8.80;;
17488;SDS011;8861;52.644;4.734;2023-11-19T07:18:56;58.47;;;8.53;;
17488;SDS011;8861;52.644;4.734;2023-11-19T07:21:25;52.37;;;8.43;;
17488;SDS011;8861;52.644;4.734;2023-11-19T07:23:53;65.40;;;8.90;;
17488;SDS011;8861;52.644;4.734;2023-11-19T07:26:20;50.83;;;7.93;;
17488;SDS011;8861;52.644;4.734;2023-11-19T07:28:47;46.53;;;8.30;;
17488;SDS011;8861;52.644;4.734;2023-11-19T07:31:14;55.43;;;8.23;;
17488;SDS011;8861;52.644;4.734;2023-11-19T07:33:41;55.47;;;7.67;;
17488;SDS011;8861;52.644;4.734;2023-11-19T07:36:09;52.83;;;7.80;;
17488;SDS011;8861;52.644;4.734;2023-11-19T07:38:37;47.73;;;7.80;;
17488;SDS011;8861;52.644;4.734;2023-11-19T07:41:04;45.37;;;7.10;;
17488;SDS011;8861;52.644;4.734;2023-11-19T07:43:32;41.47;;;6.70;;
17488;SDS011;8861;52.644;4.734;2023-11-19T07:45:59;56.70;;;7.63;;
17488;SDS011;8861;52.644;4.734;2023-11-19T07:48:26;47.10;;;7.03;;
17488;SDS011;8861;52.644;4.734;2023-11-19T07:50:53;50.10;;;7.87;;
17488;SDS011;8861;52.644;4.734;2023-11-19T07:53:20;43.83;;;7.27;;
17488;SDS011;8861;52.644;4.734;2023-11-19T07:55:48;55.63;;;8.03;;
17488;SDS011;8861;52.644;4.734;2023-11-19T07:58:15;45.00;;;7.30;;
17488;SDS011;8861;52.644;4.734;2023-11-19T08:00:43;51.73;;;8.33;;
17488;SDS011;8861;52.644;4.734;2023-11-19T08:03:09;56.67;;;7.60;;
17488;SDS011;8861;52.644;4.734;2023-11-19T08:05:36;49.77;;;7.57;;
17488;SDS011;8861;52.644;4.734;2023-11-19T08:08:04;61.50;;;8.07;;
17488;SDS011;8861;52.644;4.734;2023-11-19T08:10:32;51.50;;;7.73;;
17488;SDS011;8861;52.644;4.734;2023-11-19T08:13:00;52.63;;;7.77;;
17488;SDS011;8861;52.644;4.734;2023-11-19T08:15:27;49.23;;;8.17;;
17488;SDS011;8861;52.644;4.734;2023-11-19T08:17:54;46.70;;;7.63;;
17488;SDS011;8861;52.644;4.734;2023-11-19T08:20:21;55.50;;;8.43;;
17488;SDS011;8861;52.644;4.734;2023-11-19T08:22:48;55.47;;;8.03;;
17488;SDS011;8861;52.644;4.734;2023-11-19T08:25:15;45.03;;;7.33;;
17488;SDS011;8861;52.644;4.734;2023-11-19T08:27:42;48.50;;;7.50;;
17488;SDS011;8861;52.644;4.734;2023-11-19T08:30:11;50.87;;;8.30;;
17488;SDS011;8861;52.644;4.734;2023-11-19T08:32:39;42.63;;;7.40;;
17488;SDS011;8861;52.644;4.734;2023-11-19T08:35:06;49.63;;;7.33;;
17488;SDS011;8861;52.644;4.734;2023-11-19T08:37:34;52.57;;;7.30;;
17488;SDS011;8861;52.644;4.734;2023-11-19T08:40:01;46.03;;;7.33;;
17488;SDS011;8861;52.644;4.734;2023-11-19T08:42:29;45.30;;;7.40;;
17488;SDS011;8861;52.644;4.734;2023-11-19T08:44:56;45.30;;;7.30;;
17488;SDS011;8861;52.644;4.734;2023-11-19T08:47:25;54.63;;;7.80;;
17488;SDS011;8861;52.644;4.734;2023-11-19T08:49:52;45.40;;;8.00;;
17488;SDS011;8861;52.644;4.734;2023-11-19T08:52:20;46.10;;;7.20;;
17488;SDS011;8861;52.644;4.734;2023-11-19T08:54:47;42.07;;;7.07;;
17488;SDS011;8861;52.644;4.734;2023-11-19T08:57:14;44.37;;;7.17;;
17488;SDS011;8861;52.644;4.734;2023-11-19T08:59:41;45.20;;;7.17;;
17488;SDS011;8861;52.644;4.734;2023-11-19T09:02:08;43.13;;;7.20;;
17488;SDS011;8861;52.644;4.734;2023-11-19T09:04:37;43.47;;;6.93;;
17488;SDS011;8861;52.644;4.734;2023-11-19T09:07:04;42.17;;;6.90;;
17488;SDS011;8861;52.644;4.734;2023-11-19T09:09:31;43.60;;;6.87;;
17488;SDS011;8861;52.644;4.734;2023-11-19T09:12:00;49.77;;;7.90;;
17488;SDS011;8861;52.644;4.734;2023-11-19T09:14:28;45.60;;;7.07;;
17488;SDS011;8861;52.644;4.734;2023-11-19T09:16:55;49.33;;;7.10;;
17488;SDS011;8861;52.644;4.734;2023-11-19T09:19:23;45.80;;;7.50;;
17488;SDS011;8861;52.644;4.734;2023-11-19T09:21:51;48.03;;;7.57;;
17488;SDS011;8861;52.644;4.734;2023-11-19T09:24:18;37.83;;;6.40;;
17488;SDS011;8861;52.644;4.734;2023-11-19T09:26:45;51.30;;;7.90;;
17488;SDS011;8861;52.644;4.734;2023-11-19T09:29:11;47.07;;;7.87;;
17488;SDS011;8861;52.644;4.734;2023-11-19T09:31:39;48.17;;;7.60;;
17488;SDS011;8861;52.644;4.734;2023-11-19T09:34:06;48.43;;;7.77;;
17488;SDS011;8861;52.644;4.734;2023-11-19T09:36:33;36.97;;;7.13;;
17488;SDS011;8861;52.644;4.734;2023-11-19T09:39:02;45.77;;;7.83;;
17488;SDS011;8861;52.644;4.734;2023-11-19T09:41:30;46.97;;;7.87;;
17488;SDS011;8861;52.644;4.734;2023-11-19T09:43:59;43.73;;;7.10;;
17488;SDS011;8861;52.644;4.734;2023-11-19T09:46:26;47.80;;;6.57;;
17488;SDS011;8861;52.644;4.734;2023-11-19T09:48:56;44.00;;;7.40;;
17488;SDS011;8861;52.644;4.734;2023-11-19T09:51:24;43.90;;;7.53;;
17488;SDS011;8861;52.644;4.734;2023-11-19T09:53:51;37.13;;;6.40;;
17488;SDS011;8861;52.644;4.734;2023-11-19T09:56:20;46.10;;;7.53;;
17488;SDS011;8861;52.644;4.734;2023-11-19T09:58:47;48.13;;;7.50;;
17488;SDS011;8861;52.644;4.734;2023-11-19T10:01:14;42.93;;;7.40;;
17488;SDS011;8861;52.644;4.734;2023-11-19T10:03:41;47.57;;;7.70;;
17488;SDS011;8861;52.644;4.734;2023-11-19T10:06:09;51.03;;;7.97;;
17488;SDS011;8861;52.644;4.734;2023-11-19T10:08:37;41.07;;;6.70;;
17488;SDS011;8861;52.644;4.734;2023-11-19T10:11:04;46.67;;;7.13;;
17488;SDS011;8861;52.644;4.734;2023-11-19T10:13:33;38.03;;;6.43;;
17488;SDS011;8861;52.644;4.734;2023-11-19T10:16:03;33.90;;;6.87;;
17488;SDS011;8861;52.644;4.734;2023-11-19T10:18:33;43.00;;;6.17;;
17488;SDS011;8861;52.644;4.734;2023-11-19T10:21:03;35.73;;;6.17;;
17488;SDS011;8861;52.644;4.734;2023-11-19T10:23:44;41.57;;;6.77;;
17488;SDS011;8861;52.644;4.734;2023-11-19T10:26:15;41.47;;;6.33;;
17488;SDS011;8861;52.644;4.734;2023-11-19T10:28:43;32.93;;;6.03;;
17488;SDS011;8861;52.644;4.734;2023-11-19T10:31:12;43.00;;;6.53;;
17488;SDS011;8861;52.644;4.734;2023-11-19T10:33:39;38.03;;;6.63;;
17488;SDS011;8861;52.644;4.734;2023-11-19T10:36:07;36.97;;;6.70;;
17488;SDS011;8861;52.644;4.734;2023-11-19T10:38:34;50.80;;;6.97;;
17488;SDS011;8861;52.644;4.734;2023-11-19T10:41:01;37.53;;;6.77;;
17488;SDS011;8861;52.644;4.734;2023-11-19T10:43:29;45.57;;;7.13;;
17488;SDS011;8861;52.644;4.734;2023-11-19T10:46:08;40.17;;;6.50;;
17488;SDS011;8861;52.644;4.734;2023-11-19T10:48:36;47.47;;;7.43;;
17488;SDS011;8861;52.644;4.734;2023-11-19T10:51:04;39.17;;;6.70;;
17488;SDS011;8861;52.644;4.734;2023-11-19T10:53:33;40.17;;;5.97;;
17488;SDS011;8861;52.644;4.734;2023-11-19T10:56:04;34.73;;;6.10;;
17488;SDS011;8861;52.644;4.734;2023-11-19T10:58:33;30.30;;;5.67;;
17488;SDS011;8861;52.644;4.734;2023-11-19T11:01:04;31.77;;;5.83;;
17488;SDS011;8861;52.644;4.734;2023-11-19T11:03:39;33.13;;;6.33;;
17488;SDS011;8861;52.644;4.734;2023-11-19T11:06:06;37.50;;;6.07;;
17488;SDS011;8861;52.644;4.734;2023-11-19T11:08:35;40.23;;;6.37;;
17488;SDS011;8861;52.644;4.734;2023-11-19T11:11:04;34.63;;;5.87;;
17488;SDS011;8861;52.644;4.734;2023-11-19T11:13:32;44.13;;;7.10;;
17488;SDS011;8861;52.644;4.734;2023-11-19T11:16:00;34.93;;;6.60;;
17488;SDS011;8861;52.644;4.734;2023-11-19T11:18:30;31.00;;;5.87;;
17488;SDS011;8861;52.644;4.734;2023-11-19T11:20:58;35.43;;;6.23;;
17488;SDS011;8861;52.644;4.734;2023-11-19T11:26:32;31.03;;;5.77;;
17488;SDS011;8861;52.644;4.734;2023-11-19T11:29:21;35.70;;;5.67;;
17488;SDS011;8861;52.644;4.734;2023-11-19T11:31:57;31.60;;;5.50;;
17488;SDS011;8861;52.644;4.734;2023-11-19T11:34:41;37.60;;;5.90;;
17488;SDS011;8861;52.644;4.734;2023-11-19T11:37:21;38.13;;;6.00;;
17488;SDS011;8861;52.644;4.734;2023-11-19T11:39:57;36.53;;;5.67;;
17488;SDS011;8861;52.644;4.734;2023-11-19T11:42:34;36.63;;;6.43;;
17488;SDS011;8861;52.644;4.734;2023-11-19T11:45:02;40.77;;;6.63;;
17488;SDS011;8861;52.644;4.734;2023-11-19T11:50:48;37.43;;;6.17;;
17488;SDS011;8861;52.644;4.734;2023-11-19T11:53:17;34.17;;;5.70;;
17488;SDS011;8861;52.644;4.734;2023-11-19T11:55:54;35.17;;;5.83;;
17488;SDS011;8861;52.644;4.734;2023-11-19T11:58:28;38.20;;;6.30;;
17488;SDS011;8861;52.644;4.734;2023-11-19T12:01:01;31.97;;;5.90;;
17488;SDS011;8861;52.644;4.734;2023-11-19T12:03:30;33.67;;;5.60;;
17488;SDS011;8861;52.644;4.734;2023-11-19T12:05:59;31.73;;;5.87;;
17488;SDS011;8861;52.644;4.734;2023-11-19T12:08:27;37.10;;;5.87;;
17488;SDS011;8861;52.644;4.734;2023-11-19T12:10:56;38.07;;;6.23;;
17488;SDS011;8861;52.644;4.734;2023-11-19T12:13:24;33.53;;;5.50;;
17488;SDS011;8861;52.644;4.734;2023-11-19T12:16:07;33.53;;;6.47;;
17488;SDS011;8861;52.644;4.734;2023-11-19T12:18:35;42.87;;;6.70;;
17488;SDS011;8861;52.644;4.734;2023-11-19T12:21:06;41.70;;;6.80;;
17488;SDS011;8861;52.644;4.734;2023-11-19T12:23:35;40.67;;;6.67;;
17488;SDS011;8861;52.644;4.734;2023-11-19T12:29:03;31.93;;;5.57;;
17488;SDS011;8861;52.644;4.734;2023-11-19T12:31:31;41.83;;;6.10;;
17488;SDS011;8861;52.644;4.734;2023-11-19T12:34:04;32.50;;;5.83;;
17488;SDS011;8861;52.644;4.734;2023-11-19T12:36:34;38.57;;;6.13;;
17488;SDS011;8861;52.644;4.734;2023-11-19T12:39:01;29.67;;;5.73;;
17488;SDS011;8861;52.644;4.734;2023-11-19T12:41:29;39.33;;;5.83;;
17488;SDS011;8861;52.644;4.734;2023-11-19T12:44:08;38.60;;;6.17;;
17488;SDS011;8861;52.644;4.734;2023-11-19T12:46:36;34.23;;;5.40;;
17488;SDS011;8861;52.644;4.734;2023-11-19T12:49:03;28.63;;;5.10;;
17488;SDS011;8861;52.644;4.734;2023-11-19T12:51:31;31.00;;;4.97;;
17488;SDS011;8861;52.644;4.734;2023-11-19T12:53:59;27.10;;;4.87;;
17488;SDS011;8861;52.644;4.734;2023-11-19T12:56:26;27.10;;;5.00;;
17488;SDS011;8861;52.644;4.734;2023-11-19T12:58:54;24.37;;;4.67;;
17488;SDS011;8861;52.644;4.734;2023-11-19T13:01:21;25.23;;;4.47;;
17488;SDS011;8861;52.644;4.734;2023-11-19T13:03:48;28.77;;;5.40;;
17488;SDS011;8861;52.644;4.734;2023-11-19T13:06:16;29.47;;;5.50;;
17488;SDS011;8861;52.644;4.734;2023-11-19T13:08:46;34.10;;;5.43;;
17488;SDS011;8861;52.644;4.734;2023-11-19T13:11:31;32.23;;;5.73;;
17488;SDS011;8861;52.644;4.734;2023-11-19T13:13:59;26.07;;;4.80;;
17488;SDS011;8861;52.644;4.734;2023-11-19T13:16:29;38.83;;;6.03;;
17488;SDS011;8861;52.644;4.734;2023-11-19T13:18:56;38.63;;;6.33;;
17488;SDS011;8861;52.644;4.734;2023-11-19T13:21:24;29.73;;;5.97;;
17488;SDS011;8861;52.644;4.734;2023-11-19T13:23:54;32.37;;;5.87;;
17488;SDS011;8861;52.644;4.734;2023-11-19T13:26:21;32.80;;;5.80;;
17488;SDS011;8861;52.644;4.734;2023-11-19T13:28:49;34.00;;;5.70;;
17488;SDS011;8861;52.644;4.734;2023-11-19T13:31:16;37.90;;;5.70;;
17488;SDS011;8861;52.644;4.734;2023-11-19T13:33:43;37.57;;;5.87;;
17488;SDS011;8861;52.644;4.734;2023-11-19T13:36:10;34.97;;;5.47;;
17488;SDS011;8861;52.644;4.734;2023-11-19T13:38:37;31.83;;;5.50;;
17488;SDS011;8861;52.644;4.734;2023-11-19T13:41:06;26.83;;;5.30;;
17488;SDS011;8861;52.644;4.734;2023-11-19T13:43:34;32.00;;;5.77;;
17488;SDS011;8861;52.644;4.734;2023-11-19T13:46:03;34.10;;;6.03;;
17488;SDS011;8861;52.644;4.734;2023-11-19T13:48:30;33.03;;;5.37;;
17488;SDS011;8861;52.644;4.734;2023-11-19T13:50:57;30.97;;;5.43;;
17488;SDS011;8861;52.644;4.734;2023-11-19T13:53:25;43.93;;;6.10;;
17488;SDS011;8861;52.644;4.734;2023-11-19T13:55:51;44.83;;;6.20;;
17488;SDS011;8861;52.644;4.734;2023-11-19T13:58:19;32.77;;;6.07;;
17488;SDS011;8861;52.644;4.734;2023-11-19T14:00:46;33.03;;;5.77;;
17488;SDS011;8861;52.644;4.734;2023-11-19T14:03:14;33.20;;;6.03;;
17488;SDS011;8861;52.644;4.734;2023-11-19T14:05:41;31.80;;;5.37;;
17488;SDS011;8861;52.644;4.734;2023-11-19T14:08:08;41.30;;;6.37;;
17488;SDS011;8861;52.644;4.734;2023-11-19T14:10:37;36.63;;;6.27;;
17488;SDS011;8861;52.644;4.734;2023-11-19T14:13:05;39.17;;;5.87;;
17488;SDS011;8861;52.644;4.734;2023-11-19T14:15:32;38.93;;;6.00;;
17488;SDS011;8861;52.644;4.734;2023-11-19T14:18:00;36.67;;;6.00;;
17488;SDS011;8861;52.644;4.734;2023-11-19T14:20:29;36.00;;;6.30;;
17488;SDS011;8861;52.644;4.734;2023-11-19T14:22:56;43.73;;;5.90;;
17488;SDS011;8861;52.644;4.734;2023-11-19T14:25:23;37.50;;;5.80;;
17488;SDS011;8861;52.644;4.734;2023-11-19T14:27:50;41.93;;;6.60;;
17488;SDS011;8861;52.644;4.734;2023-11-19T14:30:17;40.40;;;6.07;;
17488;SDS011;8861;52.644;4.734;2023-11-19T14:32:44;37.77;;;5.77;;
17488;SDS011;8861;52.644;4.734;2023-11-19T14:35:12;39.73;;;6.70;;
17488;SDS011;8861;52.644;4.734;2023-11-19T14:37:40;42.87;;;6.57;;
17488;SDS011;8861;52.644;4.734;2023-11-19T14:40:07;37.17;;;6.03;;
17488;SDS011;8861;52.644;4.734;2023-11-19T14:42:36;36.70;;;6.13;;
17488;SDS011;8861;52.644;4.734;2023-11-19T14:45:04;42.07;;;6.10;;
17488;SDS011;8861;52.644;4.734;2023-11-19T14:47:33;53.00;;;7.17;;
17488;SDS011;8861;52.644;4.734;2023-11-19T14:49:59;45.87;;;7.70;;
17488;SDS011;8861;52.644;4.734;2023-11-19T14:52:28;57.60;;;7.30;;
17488;SDS011;8861;52.644;4.734;2023-11-19T14:54:56;47.13;;;7.13;;
17488;SDS011;8861;52.644;4.734;2023-11-19T14:57:23;40.83;;;6.23;;
17488;SDS011;8861;52.644;4.734;2023-11-19T14:59:50;47.57;;;6.23;;